Main page
METAR-TAF:

METAR-TAF

Airports :

Jinnah International Airport

Karachi, Pakistan

latitude: 24-54N, longitude: 067-08E, elevation: 21 m

Current weather observation

The report was made 35 minutes ago, at 00:55 UTC
Calm wind
Temperature 23°C
Humidity 73%
Pressure 1011 hPa
Visibility: 6000 m

METAR: OPKC 190055Z 00000KT 6000 NSC 23/18 Q1011 NOSIG

Time: 06:30 (01:30 UTC)

Forecast

The report was made 3 hours and 30 minutes ago, at 22:00 UTC
Forecast valid from 19 at 00 UTC to 20 at 06 UTC
Wind 5 kt from the West with gusts up to 15 kt
Visibility: 6000 m
Temporary
from 19 at 01 UTC to 19 at 05 UTC
Wind 7 kt from the West/Northwest
Visibility: 4000 m
haze
Becoming
from 19 at 20 UTC to 19 at 22 UTC
Wind 7 kt from the West/Northwest
Visibility: 5000 m
haze
Temporary
from 20 at 01 UTC to 20 at 05 UTC
Wind 5 kt from the West/Northwest
Visibility: 4000 m
haze

TAF: OPKC 182200Z 1900/2006 26005G15KT 6000 NSC TEMPO 1901/1905 29007KT 4000 HZ NSC BECMG 1920/1922 29007KT 5000 HZ NSC TEMPO 2001/2005 29005KT 4000 HZ NSC

Weather observations and forecasts of more than 4000 airports (METAR and TAF reports).

The available stations are represented by yellow and red dots on the map.

Hover mouse over dot to see the name of the station.

Then click to see weather observations and forecasts.

To change the map : click on the green buttons with a black cross to zoom in, on the green button with a dash to zoom out, or on the green arrows for adjacent maps.


METAR-TAF: